Munising, Michigan
Current Conditions -  °F | °C
As of 7:50 AM on Wednesday 26 Nov 2014 (Local Time) from KSAW Reporting Station
Clear Clear  
Wind Chill: -21°   Ceiling: Unl
Heat Index: -21°   Visibility: 10mi
Dew Point: -23°   Wind: 0mph
Humidity: 84%   Direction: NA
Pressure: 30.1"   Gusts: NA
Location:  46.41°N, 86.65°W
Report Text: KSAW 261250Z 00000KT 10SM SKC M21/M23 A3010
Loading
Personal Weather Stations






























Interactive Weather Map New forecast layout! Learn more

10-Day Weather Forecast

Advertisements
Track Severe Weather on mobile